PWSweather.com
Personal Weather Stations
Station Observations
COONRAPIDS
Minneapolis, MN 55433

Minneapolis, MN 55433

Lat: 45.187721, Lon: -93.36828

Elevation: 898

Station Type: Davis Vantage Pro 2

High Low Average
Temperature 43.9°F6.6°C 23.6°F-4.7°C 33.4°F0.8°C
Dew Point 32.1°F0.1°C 20.0°F-6.7°C 26.8°F-2.9°C
Winds 2.3 mph 3.7 kmh Calm Calm Calm WSWCalm WSW
Wind Gusts 4.6 mph7.4 kmh -- --
Humidity 87% 63% 77%
Pressure 29.77 in1008.1 mb 29.70 in1005.8 mb -
Precipitation 0.23 in5.8 mm - -
Hour Temp Dew Point Humidity Winds Wind Gusts Pressure Precip Precip Rate Daily Precip Total
12:00 AM 32.5°F0.3°C 26.4°F-3.1°C 78% Calm Calm -- 29.72 in1006.4 mb - 0.00 in0.0 mm 0.11 in2.8 mm
12:10 AM 32.3°F0.2°C 26.2°F-3.2°C 78% Calm Calm -- 29.72 in1006.4 mb - 0.00 in0.0 mm 0.11 in2.8 mm
12:20 AM 32.1°F0.1°C 26.3°F-3.2°C 79% Calm Calm -- 29.72 in1006.4 mb - 0.00 in0.0 mm 0.11 in2.8 mm
12:30 AM 31.9°F-0.1°C 26.1°F-3.3°C 79% Calm Calm -- 29.73 in1006.8 mb - 0.00 in0.0 mm 0.11 in2.8 mm
12:40 AM 31.8°F-0.1°C 26.0°F-3.3°C 79% Calm Calm -- 29.72 in1006.4 mb - 0.00 in0.0 mm 0.11 in2.8 mm
12:50 AM 31.8°F-0.1°C 26.0°F-3.3°C 79% Calm Calm -- 29.72 in1006.4 mb - 0.00 in0.0 mm 0.11 in2.8 mm
01:00 AM 31.8°F-0.1°C 26.0°F-3.3°C 79% Calm Calm -- 29.72 in1006.4 mb - 0.00 in0.0 mm 0.00 in0.0 mm
01:10 AM 31.7°F-0.2°C 25.9°F-3.4°C 79% 2.3 mph SW3.7 kmh SW 3.5 mph5.6 kmh 29.73 in1006.8 mb - 0.00 in0.0 mm 0.00 in0.0 mm
01:20 AM 31.7°F-0.2°C 26.0°F-3.3°C 79% Calm Calm -- 29.72 in1006.4 mb - 0.00 in0.0 mm 0.00 in0.0 mm
01:30 AM 31.7°F-0.2°C 25.9°F-3.4°C 79% Calm Calm 3.5 mph5.6 kmh 29.73 in1006.8 mb - 0.00 in0.0 mm 0.00 in0.0 mm
01:40 AM 31.5°F-0.3°C 25.7°F-3.5°C 79% 1.2 mph WSW1.9 kmh WSW 4.6 mph7.4 kmh 29.73 in1006.8 mb - 0.00 in0.0 mm 0.00 in0.0 mm
01:50 AM 31.3°F-0.4°C 25.5°F-3.6°C 79% 1.2 mph WSW1.9 kmh WSW 3.5 mph5.6 kmh 29.73 in1006.8 mb - 0.00 in0.0 mm 0.00 in0.0 mm
02:00 AM 31.2°F-0.4°C 25.4°F-3.7°C 79% Calm Calm -- 29.73 in1006.8 mb - 0.00 in0.0 mm 0.00 in0.0 mm
02:10 AM 30.9°F-0.6°C 25.5°F-3.6°C 80% Calm Calm -- 29.73 in1006.8 mb - 0.00 in0.0 mm 0.00 in0.0 mm
02:20 AM 30.9°F-0.6°C 25.5°F-3.6°C 80% Calm Calm -- 29.74 in1007.1 mb - 0.00 in0.0 mm 0.00 in0.0 mm
02:30 AM 31.0°F-0.6°C 25.6°F-3.6°C 80% Calm Calm -- 29.73 in1006.8 mb - 0.00 in0.0 mm 0.00 in0.0 mm
02:40 AM 31.0°F-0.6°C 25.6°F-3.6°C 80% Calm Calm 3.5 mph5.6 kmh 29.73 in1006.8 mb - 0.00 in0.0 mm 0.00 in0.0 mm
02:50 AM 31.2°F-0.4°C 25.8°F-3.4°C 80% Calm Calm -- 29.74 in1007.1 mb - 0.00 in0.0 mm 0.00 in0.0 mm
03:00 AM 31.0°F-0.6°C 25.2°F-3.8°C 79% Calm Calm -- 29.74 in1007.1 mb - 0.00 in0.0 mm 0.00 in0.0 mm
03:10 AM 30.6°F-0.8°C 25.2°F-3.8°C 80% Calm Calm -- 29.74 in1007.1 mb - 0.00 in0.0 mm 0.00 in0.0 mm
03:20 AM 30.6°F-0.8°C 25.2°F-3.8°C 80% Calm Calm -- 29.74 in1007.1 mb - 0.00 in0.0 mm 0.00 in0.0 mm
03:30 AM 30.6°F-0.8°C 25.5°F-3.6°C 81% Calm Calm -- 29.74 in1007.1 mb - 0.00 in0.0 mm 0.00 in0.0 mm
03:40 AM 30.5°F-0.8°C 25.1°F-3.8°C 80% Calm Calm -- 29.74 in1007.1 mb - 0.00 in0.0 mm 0.00 in0.0 mm
03:50 AM 30.2°F-1.0°C 24.8°F-4.0°C 80% Calm Calm -- 29.74 in1007.1 mb - 0.00 in0.0 mm 0.00 in0.0 mm
04:00 AM 29.9°F-1.2°C 24.8°F-4.0°C 81% Calm Calm -- 29.74 in1007.1 mb - 0.00 in0.0 mm 0.00 in0.0 mm
04:10 AM 30.0°F-1.1°C 24.9°F-3.9°C 81% Calm Calm -- 29.74 in1007.1 mb - 0.00 in0.0 mm 0.00 in0.0 mm
04:20 AM 30.2°F-1.0°C 25.1°F-3.8°C 81% Calm Calm -- 29.73 in1006.8 mb - 0.00 in0.0 mm 0.00 in0.0 mm
04:30 AM 30.0°F-1.1°C 24.9°F-3.9°C 81% Calm Calm -- 29.74 in1007.1 mb - 0.00 in0.0 mm 0.00 in0.0 mm
04:40 AM 29.8°F-1.2°C 24.7°F-4.1°C 81% Calm Calm -- 29.73 in1006.8 mb - 0.00 in0.0 mm 0.00 in0.0 mm
04:50 AM 29.7°F-1.3°C 24.6°F-4.1°C 81% Calm Calm -- 29.73 in1006.8 mb - 0.00 in0.0 mm 0.00 in0.0 mm
05:00 AM 29.6°F-1.3°C 24.5°F-4.2°C 81% Calm Calm 1.2 mph1.9 kmh 29.73 in1006.8 mb - 0.00 in0.0 mm 0.00 in0.0 mm
05:10 AM 29.7°F-1.3°C 24.6°F-4.1°C 81% Calm Calm -- 29.73 in1006.8 mb - 0.00 in0.0 mm 0.00 in0.0 mm
05:20 AM 30.0°F-1.1°C 24.9°F-3.9°C 81% Calm Calm -- 29.73 in1006.8 mb - 0.00 in0.0 mm 0.00 in0.0 mm
05:30 AM 30.2°F-1.0°C 25.1°F-3.8°C 81% Calm Calm -- 29.73 in1006.8 mb - 0.00 in0.0 mm 0.00 in0.0 mm
05:40 AM 30.0°F-1.1°C 24.6°F-4.1°C 80% Calm Calm -- 29.73 in1006.8 mb - 0.00 in0.0 mm 0.00 in0.0 mm
05:50 AM 29.8°F-1.2°C 24.4°F-4.2°C 80% Calm Calm -- 29.73 in1006.8 mb - 0.00 in0.0 mm 0.00 in0.0 mm
06:00 AM 29.5°F-1.4°C 24.4°F-4.2°C 81% Calm Calm -- 29.72 in1006.4 mb - 0.00 in0.0 mm 0.00 in0.0 mm
06:10 AM 29.4°F-1.4°C 24.3°F-4.3°C 81% Calm Calm -- 29.73 in1006.8 mb - 0.00 in0.0 mm 0.00 in0.0 mm
06:20 AM 29.4°F-1.4°C 24.3°F-4.3°C 81% Calm Calm -- 29.73 in1006.8 mb - 0.00 in0.0 mm 0.00 in0.0 mm
06:30 AM 28.8°F-1.8°C 23.7°F-4.6°C 81% Calm Calm -- 29.73 in1006.8 mb - 0.00 in0.0 mm 0.00 in0.0 mm
06:40 AM 28.1°F-2.2°C 23.0°F-5.0°C 81% Calm Calm -- 29.73 in1006.8 mb - 0.00 in0.0 mm 0.00 in0.0 mm
06:50 AM 27.3°F-2.6°C 22.3°F-5.4°C 81% Calm Calm -- 29.73 in1006.8 mb - 0.00 in0.0 mm 0.00 in0.0 mm
07:00 AM 26.6°F-3.0°C 21.6°F-5.8°C 81% Calm Calm -- 29.73 in1006.8 mb - 0.00 in0.0 mm 0.00 in0.0 mm
07:10 AM 26.6°F-3.0°C 22.1°F-5.5°C 83% Calm Calm -- 29.73 in1006.8 mb - 0.00 in0.0 mm 0.00 in0.0 mm
07:20 AM 26.2°F-3.2°C 21.7°F-5.7°C 83% Calm Calm -- 29.73 in1006.8 mb - 0.00 in0.0 mm 0.00 in0.0 mm
07:30 AM 25.6°F-3.6°C 21.2°F-6.0°C 83% Calm Calm -- 29.73 in1006.8 mb - 0.00 in0.0 mm 0.00 in0.0 mm
07:40 AM 25.1°F-3.8°C 20.9°F-6.2°C 84% Calm Calm -- 29.73 in1006.8 mb - 0.00 in0.0 mm 0.00 in0.0 mm
07:50 AM 24.6°F-4.1°C 20.5°F-6.4°C 84% Calm Calm -- 29.73 in1006.8 mb - 0.00 in0.0 mm 0.00 in0.0 mm
08:00 AM 24.2°F-4.3°C 20.1°F-6.6°C 84% Calm Calm -- 29.73 in1006.8 mb - 0.00 in0.0 mm 0.00 in0.0 mm
08:10 AM 24.0°F-4.4°C 20.1°F-6.6°C 85% Calm Calm -- 29.74 in1007.1 mb - 0.00 in0.0 mm 0.00 in0.0 mm
08:20 AM 24.3°F-4.3°C 20.4°F-6.4°C 85% Calm Calm -- 29.73 in1006.8 mb - 0.00 in0.0 mm 0.00 in0.0 mm
08:30 AM 24.6°F-4.1°C 21.0°F-6.1°C 86% Calm Calm -- 29.74 in1007.1 mb - 0.00 in0.0 mm 0.00 in0.0 mm
08:40 AM 24.3°F-4.3°C 20.4°F-6.4°C 85% Calm Calm -- 29.74 in1007.1 mb - 0.00 in0.0 mm 0.00 in0.0 mm
08:50 AM 23.9°F-4.5°C 20.3°F-6.5°C 86% Calm Calm -- 29.74 in1007.1 mb - 0.00 in0.0 mm 0.00 in0.0 mm
09:00 AM 23.7°F-4.6°C 20.1°F-6.6°C 86% Calm Calm -- 29.74 in1007.1 mb - 0.00 in0.0 mm 0.00 in0.0 mm
09:10 AM 23.6°F-4.7°C 20.0°F-6.7°C 86% Calm Calm -- 29.75 in1007.5 mb - 0.00 in0.0 mm 0.00 in0.0 mm
09:20 AM 23.6°F-4.7°C 20.0°F-6.7°C 86% Calm Calm -- 29.75 in1007.5 mb - 0.00 in0.0 mm 0.00 in0.0 mm
09:30 AM 23.7°F-4.6°C 20.1°F-6.6°C 86% Calm Calm -- 29.75 in1007.5 mb - 0.00 in0.0 mm 0.00 in0.0 mm
09:40 AM 24.6°F-4.1°C 21.3°F-5.9°C 87% Calm Calm -- 29.74 in1007.1 mb - 0.00 in0.0 mm 0.00 in0.0 mm
09:50 AM 26.0°F-3.3°C 22.7°F-5.2°C 87% Calm Calm -- 29.75 in1007.5 mb - 0.00 in0.0 mm 0.00 in0.0 mm
10:00 AM 27.0°F-2.8°C 23.7°F-4.6°C 87% Calm Calm -- 29.76 in1007.8 mb - 0.00 in0.0 mm 0.00 in0.0 mm
10:10 AM 28.2°F-2.1°C 24.8°F-4.0°C 87% Calm Calm 3.5 mph5.6 kmh 29.76 in1007.8 mb - 0.00 in0.0 mm 0.00 in0.0 mm
10:20 AM 29.0°F-1.7°C 25.4°F-3.7°C 86% Calm Calm -- 29.76 in1007.8 mb - 0.00 in0.0 mm 0.00 in0.0 mm
10:30 AM 30.0°F-1.1°C 25.7°F-3.5°C 84% Calm Calm 1.2 mph1.9 kmh 29.77 in1008.1 mb - 0.00 in0.0 mm 0.00 in0.0 mm
10:40 AM 30.9°F-0.6°C 26.0°F-3.3°C 82% Calm Calm -- 29.77 in1008.1 mb - 0.00 in0.0 mm 0.00 in0.0 mm
10:50 AM 31.7°F-0.2°C 26.3°F-3.2°C 80% Calm Calm -- 29.77 in1008.1 mb - 0.00 in0.0 mm 0.00 in0.0 mm
11:00 AM 32.4°F0.2°C 26.3°F-3.2°C 78% Calm Calm -- 29.77 in1008.1 mb - 0.00 in0.0 mm 0.00 in0.0 mm
11:10 AM 32.9°F0.5°C 26.5°F-3.1°C 77% Calm Calm -- 29.77 in1008.1 mb - 0.00 in0.0 mm 0.00 in0.0 mm
11:20 AM 33.2°F0.7°C 26.5°F-3.1°C 76% Calm Calm -- 29.77 in1008.1 mb - 0.00 in0.0 mm 0.00 in0.0 mm
11:30 AM 33.7°F0.9°C 26.9°F-2.8°C 76% Calm Calm -- 29.77 in1008.1 mb - 0.00 in0.0 mm 0.00 in0.0 mm
11:40 AM 34.4°F1.3°C 27.3°F-2.6°C 75% Calm Calm 2.3 mph3.7 kmh 29.77 in1008.1 mb - 0.00 in0.0 mm 0.00 in0.0 mm
11:50 AM 34.9°F1.6°C 27.1°F-2.7°C 73% 1.2 mph W1.9 kmh W 3.5 mph5.6 kmh 29.77 in1008.1 mb - 0.00 in0.0 mm 0.00 in0.0 mm
12:00 PM 35.2°F1.8°C 27.4°F-2.6°C 73% Calm Calm -- 29.77 in1008.1 mb - 0.00 in0.0 mm 0.00 in0.0 mm
12:10 PM 35.8°F2.1°C 28.0°F-2.2°C 73% Calm Calm 3.5 mph5.6 kmh 29.76 in1007.8 mb - 0.00 in0.0 mm 0.00 in0.0 mm
12:20 PM 36.7°F2.6°C 28.6°F-1.9°C 72% 1.2 mph WNW1.9 kmh WNW 2.3 mph3.7 kmh 29.75 in1007.5 mb - 0.00 in0.0 mm 0.00 in0.0 mm
12:30 PM 37.6°F3.1°C 28.7°F-1.8°C 70% Calm Calm -- 29.75 in1007.5 mb - 0.00 in0.0 mm 0.00 in0.0 mm
12:40 PM 38.7°F3.7°C 29.0°F-1.7°C 68% Calm Calm 3.5 mph5.6 kmh 29.75 in1007.5 mb - 0.00 in0.0 mm 0.00 in0.0 mm
12:50 PM 39.3°F4.1°C 29.3°F-1.5°C 67% Calm Calm 1.2 mph1.9 kmh 29.75 in1007.5 mb - 0.00 in0.0 mm 0.00 in0.0 mm
01:00 PM 39.8°F4.3°C 29.7°F-1.3°C 67% Calm Calm -- 29.74 in1007.1 mb - 0.01 in0.3 mm 0.01 in0.3 mm
01:10 PM 40.4°F4.7°C 29.9°F-1.2°C 66% Calm Calm -- 29.74 in1007.1 mb - 0.01 in0.3 mm 0.01 in0.3 mm
01:20 PM 40.6°F4.8°C 30.1°F-1.1°C 66% Calm Calm -- 29.73 in1006.8 mb - 0.00 in0.0 mm 0.01 in0.3 mm
01:30 PM 41.4°F5.2°C 30.1°F-1.1°C 64% Calm Calm -- 29.73 in1006.8 mb - 0.00 in0.0 mm 0.01 in0.3 mm
01:40 PM 41.6°F5.3°C 30.4°F-0.9°C 64% Calm Calm -- 29.72 in1006.4 mb - 0.01 in0.3 mm 0.02 in0.5 mm
01:50 PM 41.6°F5.3°C 30.4°F-0.9°C 64% Calm Calm -- 29.72 in1006.4 mb - 0.02 in0.5 mm 0.04 in1.0 mm
02:00 PM 42.2°F5.7°C 30.5°F-0.8°C 63% Calm Calm 1.2 mph1.9 kmh 29.72 in1006.4 mb - 0.02 in0.5 mm 0.06 in1.5 mm
02:10 PM 42.0°F5.6°C 30.7°F-0.7°C 64% Calm Calm -- 29.72 in1006.4 mb - 0.01 in0.3 mm 0.07 in1.8 mm
02:20 PM 41.9°F5.5°C 30.6°F-0.8°C 64% 1.2 mph S1.9 kmh S 2.3 mph3.7 kmh 29.72 in1006.4 mb - 0.01 in0.3 mm 0.08 in2.0 mm
02:30 PM 42.4°F5.8°C 31.1°F-0.5°C 64% Calm Calm -- 29.72 in1006.4 mb - 0.01 in0.3 mm 0.09 in2.3 mm
02:40 PM 43.0°F6.1°C 31.3°F-0.4°C 63% 1.2 mph SW1.9 kmh SW 2.3 mph3.7 kmh 29.72 in1006.4 mb - 0.00 in0.0 mm 0.09 in2.3 mm
02:50 PM 42.9°F6.1°C 31.6°F-0.2°C 64% Calm Calm -- 29.72 in1006.4 mb - 0.01 in0.3 mm 0.10 in2.5 mm
03:00 PM 43.0°F6.1°C 31.6°F-0.2°C 64% Calm Calm -- 29.72 in1006.4 mb - 0.02 in0.5 mm 0.12 in3.0 mm
03:10 PM 43.2°F6.2°C 31.8°F-0.1°C 64% Calm Calm -- 29.72 in1006.4 mb - 0.02 in0.5 mm 0.13 in3.3 mm
03:20 PM 43.5°F6.4°C 31.7°F-0.2°C 63% Calm Calm -- 29.71 in1006.1 mb - 0.00 in0.0 mm 0.13 in3.3 mm
03:30 PM 43.6°F6.4°C 31.8°F-0.1°C 63% Calm Calm -- 29.71 in1006.1 mb - 0.01 in0.3 mm 0.14 in3.6 mm
03:40 PM 43.8°F6.6°C 32.0°F0.0°C 63% Calm Calm -- 29.71 in1006.1 mb - 0.00 in0.0 mm 0.14 in3.6 mm
03:50 PM 43.8°F6.6°C 32.0°F0.0°C 63% 1.2 mph WSW1.9 kmh WSW 3.5 mph5.6 kmh 29.71 in1006.1 mb - 0.01 in0.3 mm 0.15 in3.8 mm
04:00 PM 43.9°F6.6°C 32.1°F0.1°C 63% Calm Calm 3.5 mph5.6 kmh 29.72 in1006.4 mb - 0.01 in0.3 mm 0.16 in4.1 mm
04:10 PM 43.6°F6.4°C 31.9°F-0.1°C 63% 1.2 mph WSW1.9 kmh WSW 3.5 mph5.6 kmh 29.72 in1006.4 mb - 0.01 in0.3 mm 0.17 in4.3 mm
04:20 PM 43.4°F6.3°C 32.0°F0.0°C 64% Calm Calm -- 29.71 in1006.1 mb - 0.01 in0.3 mm 0.18 in4.6 mm
04:30 PM 43.3°F6.3°C 31.9°F-0.1°C 64% Calm Calm 3.5 mph5.6 kmh 29.71 in1006.1 mb - 0.00 in0.0 mm 0.18 in4.6 mm
04:40 PM 43.3°F6.3°C 31.9°F-0.1°C 64% Calm Calm -- 29.71 in1006.1 mb - 0.01 in0.3 mm 0.19 in4.8 mm
04:50 PM 43.0°F6.1°C 31.6°F-0.2°C 64% Calm Calm 1.2 mph1.9 kmh 29.70 in1005.8 mb - 0.00 in0.0 mm 0.19 in4.8 mm
05:00 PM 42.7°F5.9°C 31.7°F-0.2°C 65% Calm Calm -- 29.71 in1006.1 mb - 0.01 in0.3 mm 0.20 in5.1 mm
05:10 PM 42.5°F5.8°C 31.9°F-0.1°C 66% Calm Calm -- 29.71 in1006.1 mb - 0.00 in0.0 mm 0.20 in5.1 mm
05:20 PM 41.9°F5.5°C 31.8°F-0.1°C 67% Calm Calm -- 29.70 in1005.8 mb - 0.00 in0.0 mm 0.20 in5.1 mm
05:30 PM 41.3°F5.2°C 30.8°F-0.7°C 66% Calm Calm -- 29.71 in1006.1 mb - 0.01 in0.3 mm 0.21 in5.3 mm
05:40 PM 40.7°F4.8°C 30.6°F-0.8°C 67% Calm Calm -- 29.71 in1006.1 mb - 0.00 in0.0 mm 0.21 in5.3 mm
05:50 PM 40.1°F4.5°C 30.4°F-0.9°C 68% Calm Calm -- 29.72 in1006.4 mb - 0.00 in0.0 mm 0.21 in5.3 mm
06:00 PM 39.6°F4.2°C 30.3°F-0.9°C 69% Calm Calm -- 29.72 in1006.4 mb - 0.01 in0.3 mm 0.22 in5.6 mm
06:10 PM 38.8°F3.8°C 29.8°F-1.2°C 70% Calm Calm -- 29.72 in1006.4 mb - 0.01 in0.3 mm 0.22 in5.6 mm
06:20 PM 37.6°F3.1°C 29.4°F-1.4°C 72% Calm Calm -- 29.71 in1006.1 mb - 0.00 in0.0 mm 0.22 in5.6 mm
06:30 PM 36.9°F2.7°C 29.3°F-1.5°C 74% Calm Calm -- 29.72 in1006.4 mb - 0.00 in0.0 mm 0.22 in5.6 mm
06:40 PM 36.5°F2.5°C 29.3°F-1.5°C 75% Calm Calm -- 29.71 in1006.1 mb - 0.01 in0.3 mm 0.23 in5.8 mm
06:50 PM 36.7°F2.6°C 29.5°F-1.4°C 75% Calm Calm 3.5 mph5.6 kmh 29.72 in1006.4 mb - 0.01 in0.3 mm 0.23 in5.8 mm
07:00 PM 37.1°F2.8°C 29.6°F-1.3°C 74% Calm Calm -- 29.71 in1006.1 mb - 0.00 in0.0 mm 0.23 in5.8 mm
07:10 PM 36.9°F2.7°C 29.4°F-1.4°C 74% Calm Calm -- 29.71 in1006.1 mb - 0.00 in0.0 mm 0.23 in5.8 mm
07:20 PM 36.5°F2.5°C 29.3°F-1.5°C 75% Calm Calm -- 29.71 in1006.1 mb - 0.00 in0.0 mm 0.23 in5.8 mm
07:30 PM 36.3°F2.4°C 29.1°F-1.6°C 75% Calm Calm -- 29.71 in1006.1 mb - 0.00 in0.0 mm 0.23 in5.8 mm
07:40 PM 36.0°F2.2°C 29.1°F-1.6°C 76% Calm Calm -- 29.71 in1006.1 mb - 0.00 in0.0 mm 0.23 in5.8 mm
07:50 PM 35.6°F2.0°C 28.8°F-1.8°C 76% Calm Calm -- 29.71 in1006.1 mb - 0.00 in0.0 mm 0.23 in5.8 mm
08:00 PM 35.3°F1.8°C 28.8°F-1.8°C 77% Calm Calm -- 29.72 in1006.4 mb - 0.00 in0.0 mm 0.23 in5.8 mm
08:10 PM 35.2°F1.8°C 29.0°F-1.7°C 78% Calm Calm -- 29.72 in1006.4 mb - 0.00 in0.0 mm 0.23 in5.8 mm
08:20 PM 34.6°F1.4°C 28.5°F-1.9°C 78% Calm Calm -- 29.72 in1006.4 mb - 0.00 in0.0 mm 0.23 in5.8 mm
08:30 PM 34.1°F1.2°C 28.3°F-2.1°C 79% Calm Calm -- 29.71 in1006.1 mb - 0.00 in0.0 mm 0.23 in5.8 mm
08:40 PM 33.5°F0.8°C 27.7°F-2.4°C 79% Calm Calm -- 29.72 in1006.4 mb - 0.00 in0.0 mm 0.23 in5.8 mm
08:50 PM 32.8°F0.4°C 27.3°F-2.6°C 80% Calm Calm -- 29.72 in1006.4 mb - 0.00 in0.0 mm 0.23 in5.8 mm
09:00 PM 33.0°F0.6°C 27.8°F-2.3°C 81% Calm Calm -- 29.73 in1006.8 mb - 0.00 in0.0 mm 0.23 in5.8 mm
09:10 PM 32.8°F0.4°C 27.6°F-2.4°C 81% Calm Calm -- 29.73 in1006.8 mb - 0.00 in0.0 mm 0.23 in5.8 mm
09:20 PM 32.8°F0.4°C 27.9°F-2.3°C 82% Calm Calm -- 29.73 in1006.8 mb - 0.00 in0.0 mm 0.23 in5.8 mm
09:30 PM 32.8°F0.4°C 27.9°F-2.3°C 82% Calm Calm -- 29.72 in1006.4 mb - 0.00 in0.0 mm 0.23 in5.8 mm
09:40 PM 32.6°F0.3°C 27.7°F-2.4°C 82% Calm Calm -- 29.73 in1006.8 mb - 0.00 in0.0 mm 0.23 in5.8 mm
09:50 PM 32.0°F0.0°C 27.1°F-2.7°C 82% Calm Calm -- 29.73 in1006.8 mb - 0.00 in0.0 mm 0.23 in5.8 mm
10:00 PM 31.8°F-0.1°C 27.2°F-2.7°C 83% Calm Calm -- 29.73 in1006.8 mb - 0.00 in0.0 mm 0.23 in5.8 mm
10:10 PM 31.6°F-0.2°C 27.1°F-2.7°C 83% Calm Calm -- 29.73 in1006.8 mb - 0.00 in0.0 mm 0.23 in5.8 mm
10:20 PM 32.1°F0.1°C 27.8°F-2.3°C 84% Calm Calm -- 29.73 in1006.8 mb - 0.00 in0.0 mm 0.23 in5.8 mm
10:30 PM 32.3°F0.2°C 27.7°F-2.4°C 83% Calm Calm -- 29.73 in1006.8 mb - 0.00 in0.0 mm 0.23 in5.8 mm
10:40 PM 32.3°F0.2°C 27.7°F-2.4°C 83% Calm Calm -- 29.73 in1006.8 mb - 0.00 in0.0 mm 0.23 in5.8 mm
10:50 PM 32.1°F0.1°C 27.2°F-2.7°C 82% Calm Calm -- 29.73 in1006.8 mb - 0.00 in0.0 mm 0.23 in5.8 mm
11:00 PM 32.1°F0.1°C 27.5°F-2.5°C 83% Calm Calm -- 29.72 in1006.4 mb - 0.00 in0.0 mm 0.23 in5.8 mm
11:10 PM 31.7°F-0.2°C 26.8°F-2.9°C 82% Calm Calm -- 29.72 in1006.4 mb - 0.00 in0.0 mm 0.23 in5.8 mm
11:20 PM 31.1°F-0.5°C 26.5°F-3.1°C 83% Calm Calm -- 29.72 in1006.4 mb - 0.00 in0.0 mm 0.23 in5.8 mm
11:30 PM 30.9°F-0.6°C 26.3°F-3.2°C 83% Calm Calm -- 29.73 in1006.8 mb - 0.00 in0.0 mm 0.23 in5.8 mm
11:40 PM 30.7°F-0.7°C 26.4°F-3.1°C 84% Calm Calm -- 29.73 in1006.8 mb - 0.00 in0.0 mm 0.23 in5.8 mm
11:50 PM 30.6°F-0.8°C 26.3°F-3.2°C 84% Calm Calm -- 29.73 in1006.8 mb - 0.00 in0.0 mm 0.23 in5.8 mm